| time (UTC) | temp F | wind direction | speed MPH | gust MPH | rain 1hr in | rain 24hr in | rain mn in | humidity % | barometer mb |
| 20260506192325 | 49 | 318 | 0.0 | 0.0 | 0.01 | 0.45 | 0.36 | 95 | 1006.5 |
| 20260506191824 | 49 | 279 | 0.0 | 0.0 | 0.01 | 0.45 | 0.36 | 96 | 1006.5 |
| 20260506191341 | 49 | 246 | 0.0 | 0.0 | 0.01 | 0.44 | 0.35 | 95 | 1006.4 |
| 20260506190839 | 49 | 266 | 0.0 | 0.0 | 0.01 | 0.44 | 0.35 | 95 | 1006.3 |
| 20260506190358 | 49 | 266 | 0.0 | 0.0 | 0.01 | 0.44 | 0.35 | 95 | 1006.2 |
| 20260506185851 | 49 | 266 | 0.0 | 0.0 | 0.01 | 0.44 | 0.35 | 95 | 1006.1 |
| 20260506185349 | 49 | 262 | 0.0 | 0.0 | 0.02 | 0.44 | 0.35 | 95 | 1006.1 |
| 20260506184827 | 49 | 345 | 0.0 | 0.0 | 0.02 | 0.44 | 0.35 | 95 | 1006.1 |
| 20260506184326 | 49 | 4 | 0.0 | 0.0 | 0.02 | 0.44 | 0.35 | 95 | 1006.0 |
| 20260506183825 | 50 | 354 | 0.0 | 0.0 | 0.02 | 0.44 | 0.35 | 95 | 1006.1 |
| 20260506183324 | 50 | 78 | 0.0 | 0.0 | 0.02 | 0.44 | 0.35 | 95 | 1005.9 |
| 20260506182822 | 50 | 328 | 0.0 | 0.0 | 0.02 | 0.44 | 0.35 | 95 | 1005.8 |
| 20260506182341 | 50 | 354 | 0.0 | 0.0 | 0.02 | 0.44 | 0.35 | 94 | 1005.7 |
| 20260506181819 | 50 | 12 | 0.0 | 0.0 | 0.02 | 0.44 | 0.35 | 94 | 1005.5 |
| 20260506181316 | 50 | 309 | 0.0 | 0.0 | 0.01 | 0.43 | 0.34 | 94 | 1005.5 |
| 20260506180815 | 51 | 312 | 0.0 | 0.0 | 0.01 | 0.43 | 0.34 | 93 | 1005.4 |
| 20260506180314 | 52 | 302 | 0.0 | 0.0 | 0.01 | 0.43 | 0.34 | 92 | 1005.3 |
| 20260506175813 | 54 | 4 | 0.0 | 0.0 | 0.02 | 0.43 | 0.34 | 92 | 1005.4 |
| 20260506175332 | 57 | 272 | 0.0 | 0.0 | 0.01 | 0.42 | 0.33 | 96 | 1005.2 |
| 20260506174831 | 58 | 218 | 0.0 | 0.0 | 0.01 | 0.42 | 0.33 | 96 | 1005.0 |
| 20260506174331 | 58 | 214 | 0.0 | 0.0 | 0.01 | 0.42 | 0.33 | 96 | 1005.0 |
| 20260506173829 | 58 | 186 | 0.0 | 0.0 | 0.02 | 0.42 | 0.33 | 96 | 1005.0 |
| 20260506173328 | 58 | 201 | 0.0 | 0.0 | 0.02 | 0.42 | 0.33 | 96 | 1005.1 |
| 20260506172847 | 58 | 265 | 0.0 | 3.0 | 0.02 | 0.42 | 0.33 | 96 | 1005.2 |
| 20260506172345 | 58 | 302 | 0.0 | 3.0 | 0.02 | 0.42 | 0.33 | 96 | 1005.3 |
| 20260506171823 | 58 | 224 | 0.0 | 0.0 | 0.03 | 0.42 | 0.33 | 96 | 1005.4 |
| 20260506171320 | 58 | 295 | 0.0 | 0.0 | 0.03 | 0.42 | 0.33 | 96 | 1005.3 |
| 20260506170819 | 58 | 260 | 0.0 | 0.0 | 0.04 | 0.42 | 0.33 | 96 | 1005.4 |
| 20260506170317 | 58 | 216 | 0.0 | 0.0 | 0.04 | 0.42 | 0.33 | 96 | 1005.3 |
| 20260506165815 | 58 | 228 | 0.0 | 0.0 | 0.04 | 0.41 | 0.32 | 97 | 1005.4 |
| 20260506165314 | 58 | 215 | 0.0 | 0.0 | 0.04 | 0.41 | 0.32 | 97 | 1005.5 |
| 20260506164833 | 58 | 249 | 0.0 | 0.0 | 0.05 | 0.41 | 0.32 | 97 | 1005.3 |
| 20260506164332 | 58 | 229 | 0.0 | 0.0 | 0.06 | 0.41 | 0.32 | 97 | 1005.3 |
| 20260506163853 | 58 | 210 | 0.0 | 0.0 | 0.06 | 0.40 | 0.31 | 97 | 1005.2 |
| 20260506163352 | 57 | 190 | 0.0 | 0.0 | 0.07 | 0.40 | 0.31 | 97 | 1005.4 |
| 20260506162827 | 57 | 230 | 0.0 | 0.0 | 0.08 | 0.40 | 0.31 | 97 | 1005.5 |
| 20260506162325 | 57 | 245 | 0.0 | 0.0 | 0.09 | 0.40 | 0.31 | 97 | 1005.6 |
| 20260506161823 | 57 | 214 | 0.0 | 0.0 | 0.08 | 0.39 | 0.30 | 97 | 1005.6 |
| 20260506161323 | 57 | 214 | 0.0 | 0.0 | 0.08 | 0.39 | 0.30 | 97 | 1005.7 |
| 20260506160822 | 57 | 216 | 0.0 | 0.0 | 0.07 | 0.38 | 0.29 | 97 | 1005.7 |
| 20260506160320 | 57 | 251 | 0.0 | 0.0 | 0.07 | 0.38 | 0.29 | 96 | 1005.8 |
| 20260506155818 | 57 | 187 | 0.0 | 0.0 | 0.06 | 0.37 | 0.28 | 96 | 1005.7 |
| 20260506155316 | 57 | 199 | 0.0 | 0.0 | 0.06 | 0.37 | 0.28 | 96 | 1005.8 |
| 20260506154835 | 57 | 210 | 0.0 | 0.0 | 0.05 | 0.36 | 0.27 | 96 | 1006.0 |
| 20260506154313 | 57 | 222 | 0.0 | 0.0 | 0.04 | 0.35 | 0.26 | 96 | 1006.0 |
| 20260506153828 | 57 | 212 | 0.0 | 0.0 | 0.03 | 0.34 | 0.25 | 97 | 1006.1 |
| 20260506153326 | 57 | 235 | 0.0 | 2.0 | 0.02 | 0.33 | 0.24 | 97 | 1005.8 |
| 20260506152845 | 57 | 274 | 0.0 | 2.0 | 0.01 | 0.32 | 0.23 | 97 | 1005.9 |
| 20260506152322 | 57 | 192 | 0.0 | 0.0 | 0.01 | 0.31 | 0.22 | 97 | 1005.9 |
| 20260506151821 | 57 | 220 | 0.0 | 0.0 | 0.01 | 0.31 | 0.22 | 97 | 1005.8 |
| 20260506151339 | 57 | 215 | 0.0 | 0.0 | 0.02 | 0.31 | 0.22 | 97 | 1005.8 |
| 20260506150817 | 57 | 207 | 0.0 | 0.0 | 0.02 | 0.31 | 0.22 | 97 | 1005.7 |
| 20260506150316 | 57 | 261 | 0.0 | 0.0 | 0.03 | 0.31 | 0.22 | 97 | 1005.6 |
| 20260506145814 | 57 | 261 | 0.0 | 0.0 | 0.04 | 0.31 | 0.22 | 97 | 1005.6 |
| 20260506145315 | 56 | 261 | 0.0 | 0.0 | 0.04 | 0.31 | 0.22 | 97 | 1005.6 |
| 20260506144814 | 56 | 261 | 0.0 | 0.0 | 0.05 | 0.31 | 0.22 | 97 | 1005.8 |
| 20260506144314 | 56 | 222 | 0.0 | 0.0 | 0.06 | 0.31 | 0.22 | 97 | 1005.8 |
| 20260506143832 | 56 | 251 | 0.0 | 0.0 | 0.07 | 0.31 | 0.22 | 97 | 1005.9 |
| 20260506143333 | 55 | 245 | 0.0 | 0.0 | 0.08 | 0.31 | 0.22 | 97 | 1005.9 |
| 20260506142831 | 55 | 268 | 0.0 | 0.0 | 0.09 | 0.31 | 0.22 | 97 | 1005.9 |
| 20260506142330 | 55 | 268 | 0.0 | 0.0 | 0.09 | 0.30 | 0.21 | 97 | 1006.1 |
| 20260506141829 | 55 | 268 | 0.0 | 0.0 | 0.11 | 0.30 | 0.21 | 97 | 1006.1 |
| 20260506141348 | 55 | 232 | 0.0 | 0.0 | 0.11 | 0.29 | 0.20 | 97 | 1006.2 |
| 20260506140826 | 54 | 60 | 0.0 | 0.0 | 0.11 | 0.28 | 0.19 | 97 | 1006.2 |
| 20260506140348 | 54 | 60 | 0.0 | 0.0 | 0.11 | 0.28 | 0.19 | 97 | 1006.5 |
| 20260506135825 | 54 | 293 | 0.0 | 0.0 | 0.10 | 0.27 | 0.18 | 97 | 1006.6 |
| 20260506135323 | 54 | 260 | 0.0 | 0.0 | 0.10 | 0.27 | 0.18 | 97 | 1006.5 |
| 20260506134823 | 54 | 210 | 0.0 | 0.0 | 0.09 | 0.26 | 0.17 | 97 | 1006.6 |
| 20260506134322 | 54 | 216 | 0.0 | 0.0 | 0.08 | 0.25 | 0.16 | 97 | 1006.6 |
| 20260506133841 | 54 | 216 | 0.0 | 0.0 | 0.07 | 0.24 | 0.15 | 97 | 1006.8 |
| 20260506133320 | 53 | 178 | 0.0 | 1.0 | 0.06 | 0.23 | 0.14 | 97 | 1007.0 |
| 20260506132818 | 53 | 150 | 0.0 | 0.0 | 0.04 | 0.21 | 0.12 | 97 | 1007.0 |
| 20260506132317 | 53 | 83 | 0.0 | 0.0 | 0.04 | 0.20 | 0.11 | 97 | 1007.0 |
| 20260506131815 | 53 | 83 | 0.0 | 0.0 | 0.03 | 0.19 | 0.10 | 97 | 1006.9 |
| 20260506131313 | 53 | 83 | 0.0 | 0.0 | 0.02 | 0.18 | 0.09 | 97 | 1006.8 |
| 20260506130832 | 53 | 83 | 0.0 | 0.0 | 0.01 | 0.17 | 0.08 | 97 | 1006.7 |
| 20260506130333 | 52 | 83 | 0.0 | 0.0 | 0.01 | 0.17 | 0.08 | 97 | 1006.5 |
| 20260506125830 | 52 | 83 | 0.0 | 0.0 | 0.01 | 0.17 | 0.08 | 96 | 1006.5 |
| 20260506125327 | 52 | 83 | 0.0 | 0.0 | 0.01 | 0.17 | 0.08 | 96 | 1006.3 |
| 20260506124826 | 52 | 83 | 0.0 | 0.0 | 0.01 | 0.17 | 0.08 | 97 | 1006.5 |
| 20260506124325 | 52 | 83 | 0.0 | 0.0 | 0.01 | 0.17 | 0.08 | 97 | 1006.4 |
| 20260506123823 | 52 | 83 | 0.0 | 0.0 | 0.01 | 0.17 | 0.08 | 97 | 1006.5 |
| 20260506123323 | 52 | 83 | 0.0 | 0.0 | 0.02 | 0.17 | 0.08 | 97 | 1006.5 |
| 20260506122821 | 52 | 83 | 0.0 | 0.0 | 0.02 | 0.17 | 0.08 | 97 | 1006.5 |
| 20260506122340 | 52 | 83 | 0.0 | 0.0 | 0.01 | 0.16 | 0.07 | 97 | 1006.6 |
| 20260506121817 | 51 | 83 | 0.0 | 0.0 | 0.01 | 0.16 | 0.07 | 97 | 1006.7 |
| 20260506121316 | 51 | 83 | 0.0 | 0.0 | 0.01 | 0.16 | 0.07 | 96 | 1006.7 |
| 20260506120816 | 51 | 83 | 0.0 | 0.0 | 0.02 | 0.16 | 0.07 | 96 | 1006.8 |
| 20260506120333 | 51 | 83 | 0.0 | 0.0 | 0.02 | 0.16 | 0.07 | 96 | 1006.8 |
| 20260506115832 | 51 | 83 | 0.0 | 0.0 | 0.03 | 0.16 | 0.07 | 96 | 1006.9 |
| 20260506115331 | 51 | 83 | 0.0 | 0.0 | 0.03 | 0.16 | 0.07 | 96 | 1006.9 |
| 20260506114829 | 51 | 83 | 0.0 | 0.0 | 0.03 | 0.16 | 0.07 | 96 | 1006.8 |
| 20260506114327 | 51 | 83 | 0.0 | 0.0 | 0.04 | 0.16 | 0.07 | 96 | 1006.9 |
| 20260506113847 | 51 | 83 | 0.0 | 0.0 | 0.04 | 0.16 | 0.07 | 96 | 1007.0 |
| 20260506113327 | 51 | 83 | 0.0 | 0.0 | 0.03 | 0.15 | 0.06 | 96 | 1007.1 |
| 20260506112826 | 51 | 83 | 0.0 | 0.0 | 0.04 | 0.15 | 0.06 | 96 | 1007.3 |
| 20260506112324 | 50 | 83 | 0.0 | 0.0 | 0.04 | 0.15 | 0.06 | 96 | 1007.4 |
| 20260506111822 | 51 | 83 | 0.0 | 0.0 | 0.04 | 0.15 | 0.06 | 96 | 1007.4 |
| 20260506111321 | 51 | 83 | 0.0 | 0.0 | 0.04 | 0.15 | 0.06 | 96 | 1007.5 |
| 20260506110820 | 51 | 83 | 0.0 | 0.0 | 0.03 | 0.14 | 0.05 | 96 | 1007.5 |
| 20260506110320 | 51 | 79 | 0.0 | 0.0 | 0.03 | 0.14 | 0.05 | 96 | 1007.4 |
| 20260506105818 | 50 | 4 | 0.0 | 0.0 | 0.02 | 0.13 | 0.04 | 96 | 1007.3 |
| 20260506105317 | 50 | 4 | 0.0 | 0.0 | 0.02 | 0.13 | 0.04 | 96 | 1007.3 |
| 20260506104817 | 50 | 4 | 0.0 | 0.0 | 0.02 | 0.13 | 0.04 | 95 | 1007.2 |
| 20260506104315 | 50 | 4 | 0.0 | 0.0 | 0.02 | 0.12 | 0.03 | 95 | 1007.1 |
| 20260506103834 | 50 | 4 | 0.0 | 0.0 | 0.02 | 0.12 | 0.03 | 95 | 1007.0 |
| 20260506103333 | 50 | 4 | 0.0 | 0.0 | 0.02 | 0.12 | 0.03 | 95 | 1006.9 |
| 20260506102832 | 50 | 4 | 0.0 | 0.0 | 0.01 | 0.11 | 0.02 | 95 | 1006.9 |
| 20260506102347 | 50 | 4 | 0.0 | 0.0 | 0.02 | 0.11 | 0.02 | 95 | 1006.7 |
| 20260506101824 | 50 | 4 | 0.0 | 0.0 | 0.02 | 0.11 | 0.02 | 95 | 1006.8 |
| 20260506101343 | 50 | 4 | 0.0 | 0.0 | 0.02 | 0.11 | 0.02 | 95 | 1006.7 |
| 20260506100841 | 50 | 4 | 0.0 | 0.0 | 0.02 | 0.11 | 0.02 | 94 | 1006.7 |
| 20260506100341 | 50 | 4 | 0.0 | 0.0 | 0.02 | 0.11 | 0.02 | 94 | 1006.8 |
| 20260506095819 | 50 | 4 | 0.0 | 0.0 | 0.02 | 0.11 | 0.02 | 94 | 1006.8 |
| 20260506095318 | 50 | 4 | 0.0 | 0.0 | 0.02 | 0.11 | 0.02 | 94 | 1006.8 |
| 20260506094818 | 50 | 4 | 0.0 | 0.0 | 0.01 | 0.10 | 0.01 | 94 | 1006.8 |
| 20260506094336 | 50 | 4 | 0.0 | 0.0 | 0.01 | 0.10 | 0.01 | 94 | 1006.8 |
| 20260506093814 | 50 | 4 | 0.0 | 0.0 | 0.01 | 0.10 | 0.01 | 94 | 1006.8 |
| 20260506093315 | 51 | 18 | 0.0 | 0.0 | 0.01 | 0.10 | 0.01 | 94 | 1006.8 |
| 20260506092832 | 51 | 245 | 0.0 | 0.0 | 0.01 | 0.10 | 0.01 | 93 | 1006.9 |
| 20260506092352 | 51 | 120 | 0.0 | 0.0 | 0.00 | 0.09 | 0.00 | 93 | 1006.9 |
| 20260506091829 | 51 | 120 | 0.0 | 0.0 | 0.00 | 0.09 | 0.00 | 93 | 1006.9 |
| 20260506091328 | 51 | 120 | 0.0 | 0.0 | 0.00 | 0.09 | 0.00 | 93 | 1006.9 |
| 20260506090826 | 51 | 120 | 0.0 | 0.0 | 0.00 | 0.09 | 0.00 | 93 | 1006.8 |
| 20260506090326 | 51 | 120 | 0.0 | 0.0 | 0.00 | 0.09 | 0.00 | 93 | 1006.9 |
| 20260506085825 | 51 | 120 | 0.0 | 0.0 | 0.00 | 0.09 | 0.00 | 93 | 1006.9 |
| 20260506085344 | 51 | 120 | 0.0 | 0.0 | 0.00 | 0.09 | 0.00 | 93 | 1007.0 |
| 20260506084820 | 51 | 120 | 0.0 | 0.0 | 0.00 | 0.09 | 0.00 | 92 | 1006.9 |
| 20260506084339 | 51 | 120 | 0.0 | 0.0 | 0.00 | 0.09 | 0.00 | 92 | 1007.0 |
| 20260506083837 | 51 | 120 | 0.0 | 0.0 | 0.00 | 0.09 | 0.00 | 92 | 1006.9 |
| 20260506083315 | 51 | 120 | 0.0 | 0.0 | 0.00 | 0.09 | 0.00 | 92 | 1006.9 |
| 20260506082814 | 51 | 120 | 0.0 | 0.0 | 0.00 | 0.09 | 0.00 | 92 | 1006.9 |
| 20260506082330 | 51 | 120 | 0.0 | 0.0 | 0.00 | 0.09 | 0.00 | 92 | 1006.9 |
| 20260506081829 | 51 | 258 | 0.0 | 0.0 | 0.00 | 0.09 | 0.00 | 92 | 1007.0 |
| 20260506081327 | 51 | 258 | 0.0 | 0.0 | 0.00 | 0.09 | 0.00 | 92 | 1007.0 |
| 20260506080824 | 51 | 258 | 0.0 | 0.0 | 0.00 | 0.09 | 0.00 | 92 | 1007.2 |
| 20260506080323 | 51 | 258 | 0.0 | 0.0 | 0.00 | 0.09 | 0.00 | 92 | 1007.1 |
| 20260506073332 | 51 | 289 | 0.0 | 0.0 | 0.00 | 0.09 | 0.00 | 92 | 1007.6 |
| 20260506072831 | 51 | 289 | 0.0 | 0.0 | 0.00 | 0.09 | 0.00 | 92 | 1007.5 |
| 20260506072329 | 51 | 289 | 0.0 | 0.0 | 0.00 | 0.09 | 0.00 | 92 | 1007.5 |
| 20260506071827 | 51 | 289 | 0.0 | 0.0 | 0.00 | 0.09 | 0.00 | 92 | 1007.6 |
| 20260506071327 | 51 | 289 | 0.0 | 0.0 | 0.00 | 0.09 | 0.00 | 92 | 1007.6 |
| 20260506070827 | 51 | 289 | 0.0 | 0.0 | 0.00 | 0.09 | 0.00 | 92 | 1007.9 |
| 20260506070343 | 51 | 83 | 0.0 | 0.0 | 0.00 | 0.09 | 0.00 | 92 | 1007.7 |
| 20260506062347 | 51 | 22 | 0.0 | 0.0 | 0.00 | 0.09 | 0.00 | 92 | 1008.1 |
| 20260506061826 | 51 | 22 | 0.0 | 0.0 | 0.00 | 0.09 | 0.00 | 92 | 1008.1 |
| 20260506061324 | 51 | 22 | 0.0 | 0.0 | 0.00 | 0.09 | 0.00 | 92 | 1008.2 |
| 20260506060823 | 51 | 22 | 0.0 | 0.0 | 0.00 | 0.09 | 0.00 | 92 | 1008.3 |
| 20260506060323 | 51 | 22 | 0.0 | 0.0 | 0.00 | 0.09 | 0.00 | 92 | 1008.3 |
| 20260506051331 | 53 | 45 | 0.0 | 0.0 | 0.00 | 0.09 | 0.00 | 91 | 1009.2 |
| 20260506050830 | 53 | 45 | 0.0 | 0.0 | 0.00 | 0.09 | 0.00 | 91 | 1009.1 |
| 20260506050330 | 53 | 45 | 0.0 | 0.0 | 0.00 | 0.09 | 0.00 | 91 | 1009.0 |
| 20260506044844 | 53 | 45 | 0.0 | 0.0 | 0.00 | 0.09 | 0.00 | 90 | 1009.1 |
| 20260506044322 | 53 | 45 | 0.0 | 0.0 | 0.00 | 0.09 | 0.00 | 90 | 1009.2 |
| 20260506043821 | 53 | 45 | 0.0 | 0.0 | 0.00 | 0.09 | 0.00 | 90 | 1009.3 |
| 20260506043322 | 53 | 45 | 0.0 | 0.0 | 0.00 | 0.09 | 0.00 | 90 | 1009.2 |
| 20260506042819 | 53 | 45 | 0.0 | 0.0 | 0.00 | 0.09 | 0.00 | 89 | 1009.3 |
| 20260506042340 | 53 | 45 | 0.0 | 0.0 | 0.00 | 0.09 | 0.00 | 89 | 1009.4 |
| 20260506041818 | 54 | 45 | 0.0 | 0.0 | 0.00 | 0.09 | 0.00 | 89 | 1009.4 |
| 20260506041316 | 54 | 45 | 0.0 | 0.0 | 0.00 | 0.09 | 0.00 | 89 | 1009.4 |
| 20260506040816 | 54 | 45 | 0.0 | 0.0 | 0.00 | 0.09 | 0.00 | 88 | 1009.5 |
| 20260506040316 | 54 | 45 | 0.0 | 0.0 | 0.00 | 0.09 | 0.00 | 88 | 1009.5 |
| 20260506035854 | 54 | 45 | 0.0 | 0.0 | 0.00 | 0.09 | 0.00 | 87 | 1009.6 |
| 20260506035331 | 54 | 45 | 0.0 | 0.0 | 0.00 | 0.09 | 0.00 | 87 | 1009.6 |
| 20260506034829 | 54 | 45 | 0.0 | 0.0 | 0.00 | 0.09 | 0.00 | 86 | 1009.6 |
| 20260506034328 | 54 | 45 | 0.0 | 0.0 | 0.00 | 0.09 | 0.00 | 86 | 1009.6 |
| 20260506033828 | 54 | 45 | 0.0 | 0.0 | 0.00 | 0.09 | 0.00 | 86 | 1009.6 |
| 20260506033327 | 54 | 45 | 0.0 | 0.0 | 0.00 | 0.09 | 0.00 | 86 | 1009.7 |
| 20260506032826 | 54 | 45 | 0.0 | 0.0 | 0.00 | 0.09 | 0.00 | 85 | 1009.5 |
| 20260506032323 | 55 | 45 | 0.0 | 0.0 | 0.00 | 0.09 | 0.00 | 84 | 1009.6 |
| 20260506031822 | 55 | 47 | 0.0 | 0.0 | 0.00 | 0.09 | 0.00 | 84 | 1009.7 |
| 20260506031322 | 55 | 51 | 0.0 | 0.0 | 0.00 | 0.09 | 0.00 | 84 | 1009.7 |
| 20260506030843 | 55 | 50 | 0.0 | 0.0 | 0.00 | 0.09 | 0.00 | 84 | 1009.8 |
| 20260506030320 | 55 | 51 | 0.0 | 0.0 | 0.00 | 0.09 | 0.00 | 84 | 1009.7 |
| 20260506025818 | 55 | 39 | 0.0 | 0.0 | 0.00 | 0.09 | 0.00 | 85 | 1009.7 |
| 20260506025317 | 55 | 29 | 0.0 | 0.0 | 0.00 | 0.09 | 0.00 | 85 | 1009.7 |
| 20260506024816 | 55 | 47 | 0.0 | 0.0 | 0.00 | 0.09 | 0.00 | 86 | 1009.8 |
| 20260506024314 | 56 | 87 | 0.0 | 0.0 | 0.00 | 0.09 | 0.00 | 87 | 1009.7 |
| 20260506023814 | 56 | 59 | 0.0 | 0.0 | 0.00 | 0.09 | 0.00 | 87 | 1009.6 |
| 20260506023333 | 56 | 37 | 0.0 | 0.0 | 0.00 | 0.09 | 0.00 | 87 | 1009.6 |
| 20260506022831 | 56 | 63 | 0.0 | 0.0 | 0.00 | 0.09 | 0.09 | 88 | 1009.5 |
| 20260506022329 | 56 | 87 | 0.0 | 0.0 | 0.00 | 0.09 | 0.09 | 88 | 1009.5 |
| 20260506021847 | 56 | 48 | 0.0 | 0.0 | 0.00 | 0.09 | 0.09 | 88 | 1009.4 |
| 20260506021326 | 56 | 31 | 0.0 | 0.0 | 0.00 | 0.09 | 0.09 | 88 | 1009.3 |
| 20260506020825 | 56 | 59 | 0.0 | 1.0 | 0.00 | 0.09 | 0.09 | 89 | 1009.2 |
| 20260506020327 | 56 | 83 | 0.0 | 1.0 | 0.00 | 0.09 | 0.09 | 89 | 1009.4 |
| 20260506015825 | 56 | 34 | 0.0 | 0.0 | 0.00 | 0.09 | 0.09 | 90 | 1009.3 |
| 20260506015323 | 57 | 354 | 0.0 | 0.0 | 0.00 | 0.09 | 0.09 | 91 | 1009.3 |
| 20260506014823 | 57 | 100 | 0.0 | 0.0 | 0.00 | 0.09 | 0.09 | 91 | 1009.3 |
| 20260506014322 | 57 | 305 | 0.0 | 1.0 | 0.00 | 0.09 | 0.09 | 92 | 1009.3 |
| 20260506013819 | 57 | 41 | 0.0 | 1.0 | 0.00 | 0.09 | 0.09 | 94 | 1009.1 |
| 20260506013319 | 58 | 62 | 0.0 | 0.0 | 0.00 | 0.09 | 0.09 | 94 | 1008.9 |
| 20260506012815 | 58 | 312 | 0.0 | 0.0 | 0.00 | 0.09 | 0.09 | 95 | 1008.9 |
| 20260506012332 | 58 | 359 | 0.0 | 0.0 | 0.00 | 0.09 | 0.09 | 95 | 1008.8 |
| 20260506011847 | 58 | 328 | 0.0 | 0.0 | 0.00 | 0.09 | 0.09 | 95 | 1008.5 |
| 20260506011323 | 58 | 318 | 0.0 | 0.0 | 0.00 | 0.09 | 0.09 | 94 | 1008.2 |
| 20260506010821 | 58 | 318 | 0.0 | 0.0 | 0.00 | 0.09 | 0.09 | 94 | 1008.0 |
| 20260506010322 | 58 | 318 | 0.0 | 0.0 | 0.00 | 0.09 | 0.09 | 94 | 1008.0 |
| 20260506005820 | 58 | 318 | 0.0 | 0.0 | 0.00 | 0.09 | 0.09 | 94 | 1008.0 |
| 20260506005318 | 58 | 318 | 0.0 | 0.0 | 0.00 | 0.09 | 0.09 | 93 | 1007.9 |
| 20260506004837 | 59 | 318 | 0.0 | 0.0 | 0.00 | 0.09 | 0.09 | 94 | 1007.8 |
| 20260506004315 | 59 | 318 | 0.0 | 0.0 | 0.00 | 0.09 | 0.09 | 93 | 1007.8 |
| 20260506003814 | 59 | 318 | 0.0 | 0.0 | 0.00 | 0.09 | 0.09 | 93 | 1007.7 |
| 20260506003333 | 59 | 318 | 0.0 | 0.0 | 0.00 | 0.09 | 0.09 | 93 | 1007.5 |
| 20260506002831 | 59 | 318 | 0.0 | 0.0 | 0.00 | 0.09 | 0.09 | 93 | 1007.5 |
| 20260506002330 | 60 | 318 | 0.0 | 0.0 | 0.00 | 0.09 | 0.09 | 93 | 1007.5 |
| 20260506001829 | 60 | 318 | 0.0 | 0.0 | 0.00 | 0.09 | 0.09 | 92 | 1007.5 |
| 20260506001328 | 60 | 318 | 0.0 | 0.0 | 0.00 | 0.09 | 0.09 | 92 | 1007.3 |
| 20260506000829 | 60 | 318 | 0.0 | 0.0 | 0.00 | 0.09 | 0.09 | 92 | 1007.1 |
| 20260506000327 | 60 | 318 | 0.0 | 0.0 | 0.00 | 0.09 | 0.09 | 91 | 1007.1 |
| 20260505235824 | 61 | 318 | 0.0 | 0.0 | 0.00 | 0.09 | 0.09 | 91 | 1007.0 |
| 20260505235345 | 61 | 318 | 0.0 | 0.0 | 0.00 | 0.09 | 0.09 | 91 | 1006.9 |
| 20260505234824 | 61 | 318 | 0.0 | 0.0 | 0.00 | 0.09 | 0.09 | 90 | 1006.9 |
| 20260505234323 | 61 | 318 | 0.0 | 0.0 | 0.00 | 0.09 | 0.09 | 90 | 1006.9 |
| 20260505233821 | 61 | 318 | 0.0 | 0.0 | 0.00 | 0.09 | 0.09 | 89 | 1006.9 |
| 20260505233320 | 62 | 318 | 0.0 | 0.0 | 0.00 | 0.09 | 0.09 | 88 | 1007.0 |
| 20260505232820 | 62 | 318 | 0.0 | 0.0 | 0.00 | 0.09 | 0.09 | 87 | 1006.9 |
| 20260505232318 | 62 | 318 | 0.0 | 0.0 | 0.00 | 0.09 | 0.09 | 86 | 1007.1 |
| 20260505231837 | 63 | 298 | 0.0 | 0.0 | 0.00 | 0.09 | 0.09 | 85 | 1007.0 |
| 20260505231337 | 63 | 298 | 0.0 | 0.0 | 0.00 | 0.09 | 0.09 | 85 | 1006.9 |
| 20260505230834 | 63 | 298 | 0.0 | 0.0 | 0.00 | 0.09 | 0.09 | 84 | 1006.8 |
| 20260505230332 | 63 | 321 | 0.0 | 0.0 | 0.00 | 0.09 | 0.09 | 83 | 1006.9 |
| 20260505225831 | 64 | 190 | 0.0 | 0.0 | 0.00 | 0.09 | 0.09 | 82 | 1006.8 |
| 20260505225331 | 64 | 189 | 0.0 | 0.0 | 0.00 | 0.09 | 0.09 | 82 | 1006.7 |
| 20260505224850 | 64 | 220 | 0.0 | 0.0 | 0.00 | 0.09 | 0.09 | 82 | 1006.8 |
| 20260505224327 | 64 | 251 | 0.0 | 0.0 | 0.00 | 0.09 | 0.09 | 81 | 1006.8 |
| 20260505223826 | 64 | 227 | 0.0 | 0.0 | 0.00 | 0.09 | 0.09 | 81 | 1006.8 |
| 20260505223326 | 64 | 227 | 0.0 | 0.0 | 0.00 | 0.09 | 0.09 | 82 | 1006.6 |
| 20260505222824 | 64 | 302 | 0.0 | 0.0 | 0.00 | 0.09 | 0.09 | 82 | 1006.5 |
| 20260505222323 | 64 | 302 | 0.0 | 0.0 | 0.00 | 0.09 | 0.09 | 82 | 1006.5 |
| 20260505221821 | 64 | 302 | 0.0 | 0.0 | 0.00 | 0.09 | 0.09 | 83 | 1006.5 |
| 20260505221318 | 64 | 302 | 0.0 | 0.0 | 0.00 | 0.09 | 0.09 | 83 | 1006.6 |
| 20260505220838 | 64 | 299 | 0.0 | 0.0 | 0.00 | 0.09 | 0.09 | 83 | 1006.5 |
| 20260505220317 | 64 | 208 | 0.0 | 0.0 | 0.00 | 0.09 | 0.09 | 83 | 1006.4 |
| 20260505215815 | 64 | 208 | 0.0 | 0.0 | 0.01 | 0.09 | 0.09 | 84 | 1006.4 |
| 20260505215334 | 63 | 204 | 0.0 | 0.0 | 0.01 | 0.09 | 0.09 | 83 | 1006.4 |
| 20260505214833 | 63 | 203 | 0.0 | 0.0 | 0.01 | 0.09 | 0.09 | 84 | 1006.3 |
| 20260505214331 | 63 | 160 | 0.0 | 1.0 | 0.02 | 0.09 | 0.09 | 84 | 1006.4 |
| 20260505213830 | 63 | 233 | 0.0 | 1.0 | 0.02 | 0.09 | 0.09 | 85 | 1006.5 |
| 20260505213330 | 63 | 181 | 0.0 | 0.0 | 0.03 | 0.09 | 0.09 | 85 | 1006.4 |
| 20260505212827 | 62 | 158 | 0.0 | 0.0 | 0.03 | 0.09 | 0.09 | 86 | 1006.4 |
| 20260505212325 | 62 | 183 | 0.0 | 0.0 | 0.03 | 0.09 | 0.09 | 86 | 1006.5 |
| 20260505211825 | 62 | 211 | 0.0 | 0.0 | 0.03 | 0.09 | 0.09 | 88 | 1006.6 |
| 20260505211346 | 62 | 179 | 0.0 | 0.0 | 0.06 | 0.09 | 0.09 | 88 | 1006.6 |
| 20260505203822 | 62 | 271 | 0.0 | 0.0 | 0.07 | 0.07 | 0.07 | 86 | 1007.3 |
| 20260505203323 | 62 | 267 | 0.0 | 7.0 | 0.06 | 0.06 | 0.06 | 85 | 1007.1 |
| 20260505202822 | 62 | 275 | 0.0 | 7.0 | 0.06 | 0.06 | 0.06 | 84 | 1006.7 |
| 20260505202321 | 63 | 253 | 0.0 | 1.0 | 0.06 | 0.06 | 0.06 | 81 | 1006.7 |
| 20260505201819 | 65 | 281 | 0.0 | 4.0 | 0.05 | 0.05 | 0.05 | 75 | 1006.5 |
| 20260505201319 | 69 | 303 | 0.0 | 8.0 | 0.01 | 0.01 | 0.01 | 65 | 1006.3 |
| 20260505200818 | 73 | 250 | 2.0 | 8.0 | 0.00 | 0.00 | 0.00 | 55 | 1005.8 |
| 20260505200317 | 74 | 293 | 0.0 | 5.0 | 0.00 | 0.00 | 0.00 | 49 | 1004.9 |
| 20260505195837 | 74 | 272 | 0.0 | 0.0 | 0.00 | 0.00 | 0.00 | 50 | 1004.8 |
| 20260505195315 | 74 | 262 | 0.0 | 6.0 | 0.00 | 0.00 | 0.00 | 51 | 1004.5 |
| 20260505194834 | 74 | 228 | 0.0 | 6.0 | 0.00 | 0.00 | 0.00 | 50 | 1004.4 |
| 20260505194331 | 74 | 231 | 0.0 | 4.0 | 0.00 | 0.00 | 0.00 | 51 | 1004.3 |
| 20260505193850 | 74 | 179 | 0.0 | 5.0 | 0.00 | 0.00 | 0.00 | 52 | 1004.2 |
| 20260505193330 | 74 | 245 | 1.0 | 5.0 | 0.00 | 0.00 | 0.00 | 52 | 1004.1 |
| 20260505192828 | 73 | 243 | 0.0 | 4.0 | 0.00 | 0.00 | 0.00 | 52 | 1004.1 |